• Join FlightAware (Why Join?)
  • Login
  • US Flag 
10:14PM EDT


 

Airport Tracker/Info


-or-


 

Live Flight TrackerFlight Track Log ✈ USC108 ✈ 03-May-2013 ✈ KJVY - KOSU

Flight Track Log - Related Links

Times and Time Zones

All times are in EDT time to prevent confusion due to time zone crossing. See the USC108 flight status page for this flight to view local times or setup timezone preferences in your user account.

Time Position Orientation Groundspeed Altitude Reporting Facility
EDT Latitude Longitude Course Direction KTS MPH feet Rate Location/Type
12:36AM 38.4992 -85.6033 41° Northeast 173 199 3,800  Level Indianapolis Center
12:37AM 38.5331 -85.5597 45° Northeast 173 199 4,400 540 Climbing Indianapolis Center
12:38AM 38.5647 -85.5128 49° Northeast 174 200 5,000 540 Climbing Indianapolis Center
12:39AM 38.5491 -85.4509 38° Northeast  Level FlightAware Approximate
12:39AM 38.5953 -85.4661 50° Northeast 173 199 5,500  Level Indianapolis Center
12:40AM 38.5788 -85.3997 54° Northeast  Level FlightAware Approximate
12:40AM 38.6289 -85.4172 49° Northeast 178 205 6,000  Level Indianapolis Center
12:41AM 38.6608 -85.3647 52° Northeast 181 208 6,500 360 Climbing Indianapolis Center
12:42AM 38.6928 -85.3139 51° Northeast 183 211 6,800 240 Climbing Indianapolis Center
12:43AM 38.7239 -85.2603 53° Northeast 186 214 7,000 120 Climbing Indianapolis Center
12:44AM 38.7597 -85.2078 49° Northeast 196 226 7,100  Climbing Indianapolis Center
12:45AM 38.7944 -85.1528 51° Northeast 199 229 7,100  Level Indianapolis Center
12:46AM 38.8306 -85.0961 51° Northeast 204 235 7,100  Level Indianapolis Center
12:47AM 38.8733 -85.0297 50° Northeast 203 234 7,100  Level Indianapolis Center
12:48AM 38.9083 -84.9731 52° Northeast 204 235 7,100  Level Indianapolis Center
12:49AM 38.9450 -84.9189 49° Northeast 203 234 7,100  Level Indianapolis Center
12:50AM 38.9769 -84.8708 49° Northeast 204 235 7,100  Level Indianapolis Center
12:50AM 38.9833 -84.8500 68° East 203 234 7,100  Level Cincinnati TRACON
12:51AM 39.0333 -84.7833 46° Northeast 205 236 7,100  Level Cincinnati TRACON
12:52AM 39.0667 -84.7333 49° Northeast 202 232 7,100  Level Cincinnati TRACON
12:53AM 39.1000 -84.6833 49° Northeast 205 236 7,100  Level Cincinnati TRACON
12:54AM 39.1333 -84.6167 57° Northeast 202 232 7,100  Level Cincinnati TRACON
12:55AM 39.1544 -84.5872 47° Northeast 201 231 7,100  Level Indianapolis Center
12:55AM 39.1683 -84.5656 50° Northeast 200 230 7,100  Level Indianapolis Center
12:56AM 39.1897 -84.5311 51° Northeast 200 230 7,100  Level Indianapolis Center
12:56AM 39.2089 -84.5036 48° Northeast 200 230 7,100  Level Indianapolis Center
12:57AM 39.2253 -84.4750 54° Northeast 200 230 7,100  Level Indianapolis Center
12:58AM 39.2447 -84.4492 46° Northeast 200 230 7,100  Level Indianapolis Center
12:58AM 39.2625 -84.4206 51° Northeast 200 230 7,100  Level Indianapolis Center
12:59AM 39.2808 -84.3947 47° Northeast 199 229 7,100  Level Indianapolis Center
12:59AM 39.2981 -84.3642 54° Northeast 201 231 7,100  Level Indianapolis Center
01:00AM 39.3147 -84.3372 51° Northeast 201 231 7,100  Level Indianapolis Center
01:00AM 39.3347 -84.3094 47° Northeast 200 230 7,100  Level Indianapolis Center
01:00AM 39.3481 -84.2875 52° Northeast 200 230 7,100  Level Indianapolis Center
01:01AM 39.3700 -84.2528 51° Northeast 201 231 7,100  Level Indianapolis Center
01:01AM 39.3839 -84.2331 48° Northeast 200 230 7,100  Level Indianapolis Center
01:02AM 39.4053 -84.1961 53° Northeast 200 230 7,100  Level Indianapolis Center
01:02AM 39.4178 -84.1753 52° Northeast 199 229 7,100  Level Indianapolis Center
01:03AM 39.4397 -84.1411 50° Northeast 197 227 7,100  Level Indianapolis Center
01:03AM 39.4514 -84.1203 54° Northeast 200 230 7,100  Level Indianapolis Center
01:04AM 39.4753 -84.0844 49° Northeast 200 230 7,100  Level Indianapolis Center
01:04AM 39.4872 -84.0653 51° Northeast 201 231 7,100  Level Indianapolis Center
01:05AM 39.5108 -84.0281 51° Northeast 200 230 7,100  Level Indianapolis Center
01:05AM 39.5253 -84.0056 50° Northeast 203 234 7,100  Level Indianapolis Center
01:06AM 39.5472 -83.9725 49° Northeast 200 230 7,100  Level Indianapolis Center
01:07AM 39.5636 -83.9453 52° Northeast 199 229 7,100  Level Indianapolis Center
01:07AM 39.5825 -83.9175 49° Northeast 198 228 7,100  Level Indianapolis Center
01:08AM 39.6011 -83.8906 48° Northeast 198 228 7,100  Level Indianapolis Center
01:08AM 39.6186 -83.8628 51° Northeast 198 228 7,100  Level Indianapolis Center
01:09AM 39.6369 -83.8356 49° Northeast 196 226 7,100  Level Indianapolis Center
01:09AM 39.6539 -83.8078 52° Northeast 196 226 7,100  Level Indianapolis Center
01:10AM 39.6725 -83.7806 48° Northeast 195 224 7,100  Level Indianapolis Center
01:10AM 39.6892 -83.7536 51° Northeast 195 224 7,100 -300 Level Indianapolis Center
01:11AM 39.7081 -83.7253 49° Northeast 198 228 6,800 -420 Descending Indianapolis Center
01:11AM 39.7267 -83.6969 49° Northeast 199 229 6,700 -300 Descending Indianapolis Center
01:12AM 39.7528 -83.6575 49° Northeast 207 238 6,500 -420 Descending Indianapolis Center
01:12AM 39.7631 -83.6394 53° Northeast 202 232 6,300 -360 Descending Indianapolis Center
01:13AM 39.7861 -83.6047 49° Northeast 207 238 6,200 -300 Descending Indianapolis Center
01:13AM 39.8003 -83.5811 52° Northeast 205 236 6,000 -180 Descending Indianapolis Center
01:14AM 39.8367 -83.5275 49° Northeast 206 237 6,000  Level Indianapolis Center
01:16AM 39.8749 -83.4565 57° Northeast  Level Estimated
01:23AM 40.0667 -83.0667 37° Northeast  Level FlightAware Approximate
01:24AM 40.0798 -83.0732 37° Northeast  Level Estimated